sensor_id;sensor_type;location;lat;lon;timestamp;pressure;altitude;pressure_sealevel;temperature
29701;BMP280;57917;51.380;-0.176;2022-12-18T00:00:27;101942.94;;;1.50
29701;BMP280;57917;51.380;-0.176;2022-12-18T00:06:18;101940.53;;;1.49
29701;BMP280;57917;51.380;-0.176;2022-12-18T00:12:07;101925.59;;;1.57
29701;BMP280;57917;51.380;-0.176;2022-12-18T00:18:01;101904.53;;;1.59
29701;BMP280;57917;51.380;-0.176;2022-12-18T00:23:48;101888.72;;;1.46
29701;BMP280;57917;51.380;-0.176;2022-12-18T00:29:35;101889.50;;;1.32
29701;BMP280;57917;51.380;-0.176;2022-12-18T00:35:25;101885.38;;;1.23
29701;BMP280;57917;51.380;-0.176;2022-12-18T00:41:13;101894.09;;;1.30
29701;BMP280;57917;51.380;-0.176;2022-12-18T00:47:20;101878.16;;;1.10
29701;BMP280;57917;51.380;-0.176;2022-12-18T00:53:07;101883.44;;;1.02
29701;BMP280;57917;51.380;-0.176;2022-12-18T00:58:57;101882.56;;;0.87
29701;BMP280;57917;51.380;-0.176;2022-12-18T01:04:43;101878.75;;;0.75
29701;BMP280;57917;51.380;-0.176;2022-12-18T01:10:30;101870.25;;;0.81
29701;BMP280;57917;51.380;-0.176;2022-12-18T01:16:17;101870.25;;;0.81
29701;BMP280;57917;51.380;-0.176;2022-12-18T01:22:04;101856.91;;;0.76
29701;BMP280;57917;51.380;-0.176;2022-12-18T01:27:50;101856.47;;;1.10
29701;BMP280;57917;51.380;-0.176;2022-12-18T01:33:37;101848.25;;;0.98
29701;BMP280;57917;51.380;-0.176;2022-12-18T01:39:25;101845.75;;;1.05
29701;BMP280;57917;51.380;-0.176;2022-12-18T01:51:01;101815.41;;;1.26
29701;BMP280;57917;51.380;-0.176;2022-12-18T01:56:47;101813.13;;;1.23
29701;BMP280;57917;51.380;-0.176;2022-12-18T02:02:35;101807.91;;;1.23
29701;BMP280;57917;51.380;-0.176;2022-12-18T02:08:29;101821.88;;;1.30
29701;BMP280;57917;51.380;-0.176;2022-12-18T02:14:58;101832.91;;;1.18
29701;BMP280;57917;51.380;-0.176;2022-12-18T02:20:54;101836.88;;;1.14
29701;BMP280;57917;51.380;-0.176;2022-12-18T02:26:55;101853.06;;;1.24
29701;BMP280;57917;51.380;-0.176;2022-12-18T02:32:50;101834.97;;;1.37
29701;BMP280;57917;51.380;-0.176;2022-12-18T02:38:38;101840.84;;;1.24
29701;BMP280;57917;51.380;-0.176;2022-12-18T02:44:31;101846.16;;;1.45
29701;BMP280;57917;51.380;-0.176;2022-12-18T02:50:38;101850.09;;;1.41
29701;BMP280;57917;51.380;-0.176;2022-12-18T02:56:33;101851.06;;;1.40
29701;BMP280;57917;51.380;-0.176;2022-12-18T03:08:15;101841.91;;;1.59
29701;BMP280;57917;51.380;-0.176;2022-12-18T03:14:07;101818.59;;;1.57
29701;BMP280;57917;51.380;-0.176;2022-12-18T03:19:56;101823.81;;;1.57
29701;BMP280;57917;51.380;-0.176;2022-12-18T03:25:45;101801.25;;;1.50
29701;BMP280;57917;51.380;-0.176;2022-12-18T03:31:34;101804.03;;;1.48
29701;BMP280;57917;51.380;-0.176;2022-12-18T03:37:23;101792.38;;;1.30
29701;BMP280;57917;51.380;-0.176;2022-12-18T03:49:21;101807.56;;;1.12
29701;BMP280;57917;51.380;-0.176;2022-12-18T03:55:12;101793.25;;;1.08
29701;BMP280;57917;51.380;-0.176;2022-12-18T04:01:02;101769.88;;;1.14
29701;BMP280;57917;51.380;-0.176;2022-12-18T04:06:53;101777.34;;;1.17
29701;BMP280;57917;51.380;-0.176;2022-12-18T04:12:43;101777.25;;;1.25
29701;BMP280;57917;51.380;-0.176;2022-12-18T04:18:31;101779.16;;;1.31
29701;BMP280;57917;51.380;-0.176;2022-12-18T04:24:20;101773.00;;;1.39
29701;BMP280;57917;51.380;-0.176;2022-12-18T04:30:21;101787.59;;;1.48
29701;BMP280;57917;51.380;-0.176;2022-12-18T04:36:08;101763.63;;;1.59
29701;BMP280;57917;51.380;-0.176;2022-12-18T04:41:55;101763.25;;;1.62
29701;BMP280;57917;51.380;-0.176;2022-12-18T04:47:45;101762.56;;;1.53
29701;BMP280;57917;51.380;-0.176;2022-12-18T04:53:32;101751.50;;;1.51
29701;BMP280;57917;51.380;-0.176;2022-12-18T04:59:18;101749.66;;;1.31
29701;BMP280;57917;51.380;-0.176;2022-12-18T05:05:06;101734.81;;;1.31
29701;BMP280;57917;51.380;-0.176;2022-12-18T05:11:01;101730.19;;;1.48
29701;BMP280;57917;51.380;-0.176;2022-12-18T05:16:48;101702.88;;;1.50
29701;BMP280;57917;51.380;-0.176;2022-12-18T05:22:35;101703.09;;;1.85
29701;BMP280;57917;51.380;-0.176;2022-12-18T05:28:23;101688.50;;;1.97
29701;BMP280;57917;51.380;-0.176;2022-12-18T05:34:09;101679.16;;;2.09
29701;BMP280;57917;51.380;-0.176;2022-12-18T05:39:56;101673.25;;;2.00
29701;BMP280;57917;51.380;-0.176;2022-12-18T05:45:43;101660.34;;;1.92
29701;BMP280;57917;51.380;-0.176;2022-12-18T05:51:30;101658.47;;;1.86
29701;BMP280;57917;51.380;-0.176;2022-12-18T05:57:17;101656.00;;;1.99
29701;BMP280;57917;51.380;-0.176;2022-12-18T06:03:04;101647.22;;;2.07
29701;BMP280;57917;51.380;-0.176;2022-12-18T06:08:51;101625.19;;;2.16
29701;BMP280;57917;51.380;-0.176;2022-12-18T06:14:38;101615.63;;;2.23
29701;BMP280;57917;51.380;-0.176;2022-12-18T06:20:25;101615.75;;;2.15
29701;BMP280;57917;51.380;-0.176;2022-12-18T06:26:19;101596.44;;;2.43
29701;BMP280;57917;51.380;-0.176;2022-12-18T06:32:13;101578.25;;;2.29
29701;BMP280;57917;51.380;-0.176;2022-12-18T06:38:01;101564.78;;;2.25
29701;BMP280;57917;51.380;-0.176;2022-12-18T06:43:48;101563.16;;;2.24
29701;BMP280;57917;51.380;-0.176;2022-12-18T06:49:35;101573.00;;;2.22
29701;BMP280;57917;51.380;-0.176;2022-12-18T06:55:22;101572.94;;;2.16
29701;BMP280;57917;51.380;-0.176;2022-12-18T07:01:10;101572.19;;;2.22
29701;BMP280;57917;51.380;-0.176;2022-12-18T07:06:57;101559.75;;;2.30
29701;BMP280;57917;51.380;-0.176;2022-12-18T07:12:44;101547.50;;;2.31
29701;BMP280;57917;51.380;-0.176;2022-12-18T07:18:31;101533.25;;;2.27
29701;BMP280;57917;51.380;-0.176;2022-12-18T07:24:17;101533.63;;;2.24
29701;BMP280;57917;51.380;-0.176;2022-12-18T07:30:04;101544.47;;;2.27
29701;BMP280;57917;51.380;-0.176;2022-12-18T07:35:51;101529.59;;;2.28
29701;BMP280;57917;51.380;-0.176;2022-12-18T07:41:38;101516.97;;;2.25
29701;BMP280;57917;51.380;-0.176;2022-12-18T07:47:35;101500.84;;;2.28
29701;BMP280;57917;51.380;-0.176;2022-12-18T07:53:22;101487.78;;;2.28
29701;BMP280;57917;51.380;-0.176;2022-12-18T07:59:09;101491.84;;;2.30
29701;BMP280;57917;51.380;-0.176;2022-12-18T08:04:55;101482.16;;;2.18
29701;BMP280;57917;51.380;-0.176;2022-12-18T08:10:42;101488.03;;;2.26
29701;BMP280;57917;51.380;-0.176;2022-12-18T08:16:29;101498.91;;;2.36
29701;BMP280;57917;51.380;-0.176;2022-12-18T08:22:16;101505.53;;;2.39
29701;BMP280;57917;51.380;-0.176;2022-12-18T08:28:03;101507.63;;;2.63
29701;BMP280;57917;51.380;-0.176;2022-12-18T08:33:51;101504.06;;;2.77
29701;BMP280;57917;51.380;-0.176;2022-12-18T08:39:39;101506.09;;;2.88
29701;BMP280;57917;51.380;-0.176;2022-12-18T08:45:26;101523.94;;;2.72
29701;BMP280;57917;51.380;-0.176;2022-12-18T08:51:13;101502.47;;;2.83
29701;BMP280;57917;51.380;-0.176;2022-12-18T08:57:02;101511.28;;;2.69
29701;BMP280;57917;51.380;-0.176;2022-12-18T09:02:50;101492.53;;;2.65
29701;BMP280;57917;51.380;-0.176;2022-12-18T09:08:37;101492.41;;;2.86
29701;BMP280;57917;51.380;-0.176;2022-12-18T09:14:24;101492.81;;;2.83
29701;BMP280;57917;51.380;-0.176;2022-12-18T09:20:11;101493.63;;;2.77
29701;BMP280;57917;51.380;-0.176;2022-12-18T09:25:59;101481.16;;;2.99
29701;BMP280;57917;51.380;-0.176;2022-12-18T09:31:47;101470.50;;;2.87
29701;BMP280;57917;51.380;-0.176;2022-12-18T09:37:34;101500.50;;;2.91
29701;BMP280;57917;51.380;-0.176;2022-12-18T09:43:36;101505.75;;;3.17
29701;BMP280;57917;51.380;-0.176;2022-12-18T09:49:27;101515.00;;;3.39
29701;BMP280;57917;51.380;-0.176;2022-12-18T10:01:23;101515.97;;;3.25
29701;BMP280;57917;51.380;-0.176;2022-12-18T10:07:19;101520.63;;;3.36
29701;BMP280;57917;51.380;-0.176;2022-12-18T10:13:09;101506.94;;;3.47
29701;BMP280;57917;51.380;-0.176;2022-12-18T10:19:20;101494.47;;;3.63
29701;BMP280;57917;51.380;-0.176;2022-12-18T10:31:16;101479.13;;;3.53
29701;BMP280;57917;51.380;-0.176;2022-12-18T10:37:06;101473.28;;;3.77
29701;BMP280;57917;51.380;-0.176;2022-12-18T10:43:12;101455.13;;;3.82
29701;BMP280;57917;51.380;-0.176;2022-12-18T10:48:59;101435.78;;;3.77
29701;BMP280;57917;51.380;-0.176;2022-12-18T10:54:55;101415.56;;;3.39
29701;BMP280;57917;51.380;-0.176;2022-12-18T11:00:44;101411.16;;;3.33
29701;BMP280;57917;51.380;-0.176;2022-12-18T11:06:33;101401.47;;;3.40
29701;BMP280;57917;51.380;-0.176;2022-12-18T11:12:23;101406.03;;;3.65
29701;BMP280;57917;51.380;-0.176;2022-12-18T11:18:31;101403.81;;;3.68
29701;BMP280;57917;51.380;-0.176;2022-12-18T11:24:39;101392.97;;;3.58
29701;BMP280;57917;51.380;-0.176;2022-12-18T11:30:37;101396.56;;;3.57
29701;BMP280;57917;51.380;-0.176;2022-12-18T11:36:25;101400.59;;;3.60
29701;BMP280;57917;51.380;-0.176;2022-12-18T11:42:28;101379.44;;;3.61
29701;BMP280;57917;51.380;-0.176;2022-12-18T11:48:23;101380.03;;;3.70
29701;BMP280;57917;51.380;-0.176;2022-12-18T11:54:13;101379.88;;;3.65
29701;BMP280;57917;51.380;-0.176;2022-12-18T12:18:49;101305.38;;;3.54
29701;BMP280;57917;51.380;-0.176;2022-12-18T12:25:19;101266.34;;;3.46
29701;BMP280;57917;51.380;-0.176;2022-12-18T12:43:26;101259.16;;;3.41
29701;BMP280;57917;51.380;-0.176;2022-12-18T12:49:19;101245.25;;;3.34
29701;BMP280;57917;51.380;-0.176;2022-12-18T12:55:20;101263.31;;;3.49
29701;BMP280;57917;51.380;-0.176;2022-12-18T13:01:16;101257.03;;;3.57
29701;BMP280;57917;51.380;-0.176;2022-12-18T13:07:27;101238.31;;;3.60
29701;BMP280;57917;51.380;-0.176;2022-12-18T13:13:15;101210.47;;;3.65
29701;BMP280;57917;51.380;-0.176;2022-12-18T13:19:22;101196.78;;;3.63
29701;BMP280;57917;51.380;-0.176;2022-12-18T13:25:33;101186.16;;;3.58
29701;BMP280;57917;51.380;-0.176;2022-12-18T13:37:40;101181.94;;;3.57
29701;BMP280;57917;51.380;-0.176;2022-12-18T13:43:43;101150.53;;;3.50
29701;BMP280;57917;51.380;-0.176;2022-12-18T13:49:39;101146.69;;;3.60
29701;BMP280;57917;51.380;-0.176;2022-12-18T13:55:26;101133.63;;;3.53
29701;BMP280;57917;51.380;-0.176;2022-12-18T14:01:23;101138.25;;;3.58
29701;BMP280;57917;51.380;-0.176;2022-12-18T14:07:46;101128.56;;;3.58
29701;BMP280;57917;51.380;-0.176;2022-12-18T14:13:37;101127.19;;;3.56
29701;BMP280;57917;51.380;-0.176;2022-12-18T14:19:27;101141.63;;;3.65
29701;BMP280;57917;51.380;-0.176;2022-12-18T14:25:18;101113.50;;;3.78
29701;BMP280;57917;51.380;-0.176;2022-12-18T14:31:17;101110.03;;;3.84
29701;BMP280;57917;51.380;-0.176;2022-12-18T14:37:05;101109.19;;;3.90
29701;BMP280;57917;51.380;-0.176;2022-12-18T14:42:53;101099.16;;;3.87
29701;BMP280;57917;51.380;-0.176;2022-12-18T14:48:41;101093.59;;;3.95
29701;BMP280;57917;51.380;-0.176;2022-12-18T14:54:29;101095.72;;;4.05
29701;BMP280;57917;51.380;-0.176;2022-12-18T15:00:22;101088.31;;;4.20
29701;BMP280;57917;51.380;-0.176;2022-12-18T15:06:35;101084.31;;;4.17
29701;BMP280;57917;51.380;-0.176;2022-12-18T15:12:41;101061.84;;;4.28
29701;BMP280;57917;51.380;-0.176;2022-12-18T15:18:35;101057.44;;;4.40
29701;BMP280;57917;51.380;-0.176;2022-12-18T15:24:32;101057.19;;;4.48
29701;BMP280;57917;51.380;-0.176;2022-12-18T15:30:22;101052.91;;;4.65
29701;BMP280;57917;51.380;-0.176;2022-12-18T15:36:13;101028.88;;;4.68
29701;BMP280;57917;51.380;-0.176;2022-12-18T15:42:01;101003.34;;;4.75
29701;BMP280;57917;51.380;-0.176;2022-12-18T15:48:21;101001.31;;;4.89
29701;BMP280;57917;51.380;-0.176;2022-12-18T15:54:12;100981.47;;;4.93
29701;BMP280;57917;51.380;-0.176;2022-12-18T16:00:00;100986.06;;;5.09
29701;BMP280;57917;51.380;-0.176;2022-12-18T16:05:50;100973.22;;;5.19
29701;BMP280;57917;51.380;-0.176;2022-12-18T16:11:41;100963.75;;;5.29
29701;BMP280;57917;51.380;-0.176;2022-12-18T16:17:30;100964.19;;;5.50
29701;BMP280;57917;51.380;-0.176;2022-12-18T16:23:17;100944.63;;;5.69
29701;BMP280;57917;51.380;-0.176;2022-12-18T16:29:03;100944.72;;;5.74
29701;BMP280;57917;51.380;-0.176;2022-12-18T16:34:52;100934.75;;;5.87
29701;BMP280;57917;51.380;-0.176;2022-12-18T16:40:38;100913.22;;;6.02
29701;BMP280;57917;51.380;-0.176;2022-12-18T16:46:48;100917.59;;;6.13
29701;BMP280;57917;51.380;-0.176;2022-12-18T16:52:39;100909.44;;;6.26
29701;BMP280;57917;51.380;-0.176;2022-12-18T16:58:31;100901.81;;;6.24
29701;BMP280;57917;51.380;-0.176;2022-12-18T17:04:19;100901.72;;;6.36
29701;BMP280;57917;51.380;-0.176;2022-12-18T17:10:16;100885.88;;;6.31
29701;BMP280;57917;51.380;-0.176;2022-12-18T17:16:05;100891.53;;;6.39
29701;BMP280;57917;51.380;-0.176;2022-12-18T17:21:55;100885.56;;;6.44
29701;BMP280;57917;51.380;-0.176;2022-12-18T17:27:42;100858.94;;;6.40
29701;BMP280;57917;51.380;-0.176;2022-12-18T17:33:30;100856.16;;;6.47
29701;BMP280;57917;51.380;-0.176;2022-12-18T17:39:19;100846.03;;;6.56
29701;BMP280;57917;51.380;-0.176;2022-12-18T17:45:12;100844.06;;;6.63
29701;BMP280;57917;51.380;-0.176;2022-12-18T17:51:05;100831.25;;;6.71
29701;BMP280;57917;51.380;-0.176;2022-12-18T17:56:52;100821.06;;;6.75
29701;BMP280;57917;51.380;-0.176;2022-12-18T18:02:45;100832.53;;;6.85
29701;BMP280;57917;51.380;-0.176;2022-12-18T18:08:37;100818.25;;;6.81
29701;BMP280;57917;51.380;-0.176;2022-12-18T18:14:24;100820.50;;;6.89
29701;BMP280;57917;51.380;-0.176;2022-12-18T18:20:16;100832.34;;;6.92
29701;BMP280;57917;51.380;-0.176;2022-12-18T18:26:08;100817.97;;;6.99
29701;BMP280;57917;51.380;-0.176;2022-12-18T18:31:56;100800.13;;;7.01
29701;BMP280;57917;51.380;-0.176;2022-12-18T18:37:47;100799.63;;;7.04
29701;BMP280;57917;51.380;-0.176;2022-12-18T18:43:36;100787.00;;;7.06
29701;BMP280;57917;51.380;-0.176;2022-12-18T18:49:25;100782.84;;;7.10
29701;BMP280;57917;51.380;-0.176;2022-12-18T18:55:13;100788.22;;;7.20
29701;BMP280;57917;51.380;-0.176;2022-12-18T19:01:19;100776.16;;;7.24
29701;BMP280;57917;51.380;-0.176;2022-12-18T19:07:08;100766.97;;;7.27
29701;BMP280;57917;51.380;-0.176;2022-12-18T19:12:56;100748.28;;;7.28
29701;BMP280;57917;51.380;-0.176;2022-12-18T19:19:03;100738.00;;;7.27
29701;BMP280;57917;51.380;-0.176;2022-12-18T19:24:50;100733.94;;;7.41
29701;BMP280;57917;51.380;-0.176;2022-12-18T19:30:37;100727.38;;;7.48
29701;BMP280;57917;51.380;-0.176;2022-12-18T19:36:28;100737.00;;;7.60
29701;BMP280;57917;51.380;-0.176;2022-12-18T19:42:17;100724.97;;;7.69
29701;BMP280;57917;51.380;-0.176;2022-12-18T19:48:16;100708.09;;;7.70
29701;BMP280;57917;51.380;-0.176;2022-12-18T19:54:04;100695.50;;;7.82
29701;BMP280;57917;51.380;-0.176;2022-12-18T19:59:51;100697.19;;;7.93
29701;BMP280;57917;51.380;-0.176;2022-12-18T20:05:37;100685.97;;;8.02
29701;BMP280;57917;51.380;-0.176;2022-12-18T20:11:24;100670.56;;;7.94
29701;BMP280;57917;51.380;-0.176;2022-12-18T20:17:11;100694.16;;;8.11
29701;BMP280;57917;51.380;-0.176;2022-12-18T20:23:02;100677.59;;;8.20
29701;BMP280;57917;51.380;-0.176;2022-12-18T20:28:49;100669.72;;;8.30
29701;BMP280;57917;51.380;-0.176;2022-12-18T20:34:37;100668.97;;;8.40
29701;BMP280;57917;51.380;-0.176;2022-12-18T20:40:25;100665.06;;;8.52
29701;BMP280;57917;51.380;-0.176;2022-12-18T20:46:14;100658.25;;;8.66
29701;BMP280;57917;51.380;-0.176;2022-12-18T20:52:02;100661.47;;;8.79
29701;BMP280;57917;51.380;-0.176;2022-12-18T20:57:49;100663.28;;;8.78
29701;BMP280;57917;51.380;-0.176;2022-12-18T21:03:39;100646.44;;;8.89
29701;BMP280;57917;51.380;-0.176;2022-12-18T21:09:29;100649.63;;;8.91
29701;BMP280;57917;51.380;-0.176;2022-12-18T21:15:25;100636.66;;;9.05
29701;BMP280;57917;51.380;-0.176;2022-12-18T21:21:14;100648.03;;;9.05
29701;BMP280;57917;51.380;-0.176;2022-12-18T21:27:01;100640.13;;;9.10
29701;BMP280;57917;51.380;-0.176;2022-12-18T21:32:50;100628.25;;;9.18
29701;BMP280;57917;51.380;-0.176;2022-12-18T21:38:38;100619.28;;;9.29
29701;BMP280;57917;51.380;-0.176;2022-12-18T21:44:26;100614.50;;;9.31
29701;BMP280;57917;51.380;-0.176;2022-12-18T21:50:13;100618.69;;;9.42
29701;BMP280;57917;51.380;-0.176;2022-12-18T21:56:00;100602.59;;;9.43
29701;BMP280;57917;51.380;-0.176;2022-12-18T22:01:48;100609.44;;;9.54
29701;BMP280;57917;51.380;-0.176;2022-12-18T22:07:36;100595.44;;;9.54
29701;BMP280;57917;51.380;-0.176;2022-12-18T22:13:23;100590.66;;;9.61
29701;BMP280;57917;51.380;-0.176;2022-12-18T22:19:10;100588.25;;;9.69
29701;BMP280;57917;51.380;-0.176;2022-12-18T22:25:00;100589.28;;;9.78
29701;BMP280;57917;51.380;-0.176;2022-12-18T22:30:50;100586.94;;;9.77
29701;BMP280;57917;51.380;-0.176;2022-12-18T22:36:46;100568.91;;;9.84
29701;BMP280;57917;51.380;-0.176;2022-12-18T22:42:34;100581.31;;;9.93
29701;BMP280;57917;51.380;-0.176;2022-12-18T22:48:21;100572.81;;;10.02
29701;BMP280;57917;51.380;-0.176;2022-12-18T22:54:10;100568.78;;;10.09
29701;BMP280;57917;51.380;-0.176;2022-12-18T23:00:02;100558.44;;;10.18
29701;BMP280;57917;51.380;-0.176;2022-12-18T23:05:50;100565.50;;;10.27
29701;BMP280;57917;51.380;-0.176;2022-12-18T23:11:38;100568.38;;;10.36
29701;BMP280;57917;51.380;-0.176;2022-12-18T23:17:26;100554.91;;;10.37
29701;BMP280;57917;51.380;-0.176;2022-12-18T23:23:12;100554.00;;;10.52
29701;BMP280;57917;51.380;-0.176;2022-12-18T23:29:02;100562.16;;;10.60
29701;BMP280;57917;51.380;-0.176;2022-12-18T23:34:49;100555.47;;;10.73
29701;BMP280;57917;51.380;-0.176;2022-12-18T23:40:36;100548.25;;;10.78
29701;BMP280;57917;51.380;-0.176;2022-12-18T23:46:28;100528.41;;;10.76
29701;BMP280;57917;51.380;-0.176;2022-12-18T23:52:20;100517.19;;;10.84
29701;BMP280;57917;51.380;-0.176;2022-12-18T23:58:18;100511.28;;;10.97
